createdAt,value
2018-10-17T00:02:21.287Z,77.10
2018-10-17T00:06:24.849Z,76.00
2018-10-17T00:10:28.249Z,77.20
2018-10-17T00:14:31.601Z,75.50
2018-10-17T00:18:35.476Z,77.60
2018-10-17T00:22:38.815Z,73.70
2018-10-17T00:26:42.172Z,78.50
2018-10-17T00:30:45.534Z,77.20
2018-10-17T00:34:48.904Z,72.80
2018-10-17T00:38:52.268Z,72.80
2018-10-17T00:42:56.225Z,74.90
2018-10-17T00:46:59.634Z,75.00
2018-10-17T00:51:02.990Z,73.60
2018-10-17T00:55:06.834Z,74.40
2018-10-17T00:59:12.651Z,73.70
2018-10-17T01:03:15.962Z,75.60
2018-10-17T01:07:19.330Z,73.90
2018-10-17T01:11:22.701Z,74.20
2018-10-17T01:15:26.152Z,71.80
2018-10-17T01:19:29.518Z,77.30
2018-10-17T01:23:32.901Z,73.50
2018-10-17T01:27:36.294Z,76.20
2018-10-17T01:31:39.675Z,77.10
2018-10-17T01:35:43.052Z,78.30
2018-10-17T01:39:46.386Z,77.90
2018-10-17T01:43:49.753Z,74.60
2018-10-17T01:47:53.128Z,75.60
2018-10-17T01:51:56.493Z,75.00
2018-10-17T01:56:00.167Z,76.80
2018-10-17T02:00:03.672Z,75.50
2018-10-17T02:04:07.032Z,75.80
2018-10-17T02:08:10.405Z,77.30
2018-10-17T02:12:13.759Z,74.40
2018-10-17T02:16:17.122Z,76.40
2018-10-17T02:20:20.482Z,80.50
2018-10-17T02:24:23.857Z,77.80
2018-10-17T02:28:27.260Z,73.70
2018-10-17T02:32:30.623Z,74.10
2018-10-17T02:36:33.997Z,76.70
2018-10-17T02:40:37.378Z,78.10
2018-10-17T02:44:40.742Z,74.00
2018-10-17T02:48:44.113Z,74.60
2018-10-17T02:52:47.475Z,74.40
2018-10-17T02:56:50.832Z,74.60
2018-10-17T03:00:54.205Z,75.50
2018-10-17T03:04:57.715Z,76.70
2018-10-17T03:09:01.126Z,75.40
2018-10-17T03:13:04.569Z,74.90
2018-10-17T03:17:07.911Z,76.10
2018-10-17T03:21:11.301Z,79.60
2018-10-17T03:25:14.751Z,79.10
2018-10-17T03:29:18.168Z,76.30
2018-10-17T03:33:21.517Z,79.10
2018-10-17T03:37:24.866Z,79.00
2018-10-17T03:41:28.245Z,77.80
2018-10-17T03:45:31.624Z,75.20
2018-10-17T03:49:35.092Z,73.00
2018-10-17T03:53:38.478Z,74.80
2018-10-17T03:57:41.845Z,74.60
2018-10-17T04:01:45.228Z,75.80
2018-10-17T04:05:48.596Z,75.30
2018-10-17T04:09:51.974Z,79.00
2018-10-17T04:13:55.361Z,76.60
2018-10-17T04:17:58.773Z,75.60
2018-10-17T04:22:02.159Z,76.30
2018-10-17T04:26:05.529Z,74.90
2018-10-17T04:30:08.931Z,73.80
2018-10-17T04:34:12.333Z,74.80
2018-10-17T04:38:15.763Z,74.40
2018-10-17T04:42:19.141Z,79.70
2018-10-17T04:46:22.521Z,78.20
2018-10-17T04:50:25.879Z,79.30
2018-10-17T04:54:29.245Z,79.70
2018-10-17T04:58:32.625Z,78.20
2018-10-17T05:02:36.044Z,75.70
2018-10-17T05:06:39.450Z,74.60
2018-10-17T05:10:42.839Z,74.10
2018-10-17T05:14:46.205Z,76.00
2018-10-17T05:18:49.588Z,74.30
2018-10-17T05:22:53.031Z,74.40
2018-10-17T05:26:56.400Z,74.80
2018-10-17T05:30:59.854Z,75.20
2018-10-17T05:35:03.226Z,74.90
2018-10-17T05:39:07.349Z,74.50
2018-10-17T05:43:10.799Z,77.20
2018-10-17T05:47:14.196Z,77.10
2018-10-17T05:51:17.604Z,80.40
2018-10-17T05:55:21.043Z,78.10
2018-10-17T05:59:24.473Z,77.40
2018-10-17T06:03:27.925Z,75.20
2018-10-17T06:07:31.410Z,74.50
2018-10-17T06:11:34.896Z,76.00
2018-10-17T06:15:38.302Z,75.30
2018-10-17T06:19:41.737Z,75.10
2018-10-17T06:23:45.153Z,74.10
2018-10-17T06:27:48.608Z,75.60
2018-10-17T06:31:51.996Z,75.70
2018-10-17T06:35:55.406Z,76.20
2018-10-17T06:39:58.821Z,74.70
2018-10-17T06:44:02.323Z,77.30
2018-10-17T06:48:06.149Z,79.70
2018-10-17T06:52:09.583Z,77.30
2018-10-17T06:56:12.984Z,74.80
2018-10-17T07:00:16.463Z,76.60
2018-10-17T07:04:19.916Z,74.40
2018-10-17T07:08:23.472Z,78.80
2018-10-17T07:12:26.895Z,76.10
2018-10-17T07:16:30.645Z,77.80
2018-10-17T07:20:34.050Z,75.20
2018-10-17T07:24:37.493Z,76.90
2018-10-17T07:28:40.979Z,75.50
2018-10-17T07:32:44.324Z,78.30
2018-10-17T07:36:47.865Z,76.60
2018-10-17T07:40:51.354Z,75.40
2018-10-17T07:44:54.840Z,75.30
2018-10-17T07:48:58.263Z,74.10
2018-10-17T07:53:01.813Z,73.90
2018-10-17T07:57:05.956Z,75.00
2018-10-17T08:01:09.335Z,72.80
2018-10-17T08:05:12.733Z,73.00
2018-10-17T08:09:16.170Z,74.90
2018-10-17T08:13:19.610Z,75.10
2018-10-17T08:17:23.036Z,75.00
2018-10-17T08:21:26.653Z,77.60
2018-10-17T08:25:29.950Z,79.90
2018-10-17T08:29:33.377Z,79.40
2018-10-17T08:33:37.682Z,76.20
2018-10-17T08:37:41.762Z,72.10
2018-10-17T08:41:44.904Z,75.00
2018-10-17T08:45:48.385Z,73.40
2018-10-17T08:49:51.963Z,71.60
2018-10-17T08:53:55.578Z,71.60
2018-10-17T08:57:59.161Z,70.10
2018-10-17T09:02:02.508Z,77.20
2018-10-17T09:06:10.720Z,70.90
2018-10-17T09:10:14.266Z,71.40
2018-10-17T09:14:18.003Z,69.40
2018-10-17T09:18:21.424Z,68.80
2018-10-17T09:22:25.741Z,70.30
2018-10-17T09:26:29.041Z,69.60
2018-10-17T09:30:32.778Z,68.10
2018-10-17T09:34:36.024Z,68.30
2018-10-17T09:38:40.260Z,67.90
2018-10-17T09:42:44.797Z,67.40
2018-10-17T09:46:48.285Z,67.20
2018-10-17T09:50:51.705Z,66.60
2018-10-17T09:54:55.153Z,66.70
2018-10-17T09:58:58.593Z,67.00
2018-10-17T10:03:02.018Z,65.50
2018-10-17T10:07:05.508Z,64.70
2018-10-17T10:11:09.201Z,65.20
2018-10-17T10:15:12.647Z,65.40
2018-10-17T10:19:16.217Z,66.60
2018-10-17T10:23:19.727Z,67.10
2018-10-17T10:27:23.198Z,68.20
2018-10-17T10:31:26.751Z,66.40
2018-10-17T10:35:30.601Z,66.60
2018-10-17T10:39:34.083Z,65.00
2018-10-17T10:43:37.692Z,64.50
2018-10-17T10:47:41.121Z,63.60
2018-10-17T10:51:44.646Z,63.20
2018-10-17T10:55:48.081Z,62.00
2018-10-17T10:59:51.615Z,62.40
2018-10-17T11:03:55.077Z,62.10
2018-10-17T11:07:58.628Z,61.80
2018-10-17T11:12:02.094Z,59.50
2018-10-17T11:16:05.579Z,60.50
2018-10-17T11:20:09.500Z,59.30
2018-10-17T11:24:13.013Z,58.40
2018-10-17T11:28:16.450Z,59.10
2018-10-17T11:32:19.877Z,54.70
2018-10-17T11:36:23.365Z,57.30
2018-10-17T11:40:26.955Z,59.30
2018-10-17T11:44:30.301Z,59.60
2018-10-17T11:48:33.781Z,58.60
2018-10-17T11:52:37.245Z,59.20
2018-10-17T11:56:40.807Z,59.30
2018-10-17T12:00:44.283Z,59.20
2018-10-17T12:04:48.171Z,60.00
2018-10-17T12:08:51.551Z,55.50
2018-10-17T12:13:01.614Z,54.60
2018-10-17T12:17:05.363Z,51.80
2018-10-17T12:21:08.819Z,58.00
2018-10-17T12:25:12.893Z,55.20
2018-10-17T12:29:16.410Z,56.90
2018-10-17T12:33:19.873Z,56.60
2018-10-17T12:37:23.419Z,53.90
2018-10-17T12:41:27.013Z,54.90
2018-10-17T12:45:30.487Z,55.90
2018-10-17T12:49:33.939Z,48.70
2018-10-17T12:53:37.482Z,52.90
2018-10-17T12:57:40.861Z,55.30
2018-10-17T13:01:44.322Z,54.30
2018-10-17T13:05:47.801Z,58.00
2018-10-17T13:09:51.301Z,56.30
2018-10-17T13:13:54.775Z,56.00
2018-10-17T13:17:58.335Z,57.20
2018-10-17T13:22:01.844Z,54.60
2018-10-17T13:26:05.700Z,58.60
2018-10-17T13:30:09.364Z,59.40
2018-10-17T13:34:12.845Z,56.30
2018-10-17T13:38:16.498Z,58.40
2018-10-17T13:42:19.983Z,57.00
2018-10-17T13:46:23.408Z,58.40
2018-10-17T13:50:26.905Z,60.40
2018-10-17T13:54:30.394Z,60.00
2018-10-17T13:58:33.822Z,60.70
2018-10-17T14:02:37.261Z,58.00
2018-10-17T14:06:40.717Z,58.90
2018-10-17T14:10:44.209Z,60.60
2018-10-17T14:14:47.817Z,59.70
2018-10-17T14:18:51.361Z,60.10
2018-10-17T14:22:54.781Z,59.90
2018-10-17T14:26:58.191Z,60.30
2018-10-17T14:31:01.618Z,59.40
2018-10-17T14:35:07.318Z,60.80
2018-10-17T14:39:12.496Z,61.40
2018-10-17T14:43:16.249Z,59.40
2018-10-17T14:47:19.793Z,61.40
2018-10-17T14:51:23.222Z,60.90
2018-10-17T14:55:26.684Z,60.40
2018-10-17T14:59:30.123Z,58.50
2018-10-17T15:03:33.573Z,59.70
2018-10-17T15:07:37.186Z,60.50
2018-10-17T15:11:41.063Z,59.60
2018-10-17T15:15:45.309Z,59.90
2018-10-17T15:19:48.865Z,60.80
2018-10-17T15:23:52.431Z,59.70
2018-10-17T15:27:56.067Z,60.40
2018-10-17T15:31:59.784Z,60.80
2018-10-17T15:36:03.475Z,61.20
2018-10-17T15:40:07.182Z,60.90
2018-10-17T15:44:17.084Z,60.50
2018-10-17T15:48:20.761Z,61.90
2018-10-17T15:52:24.390Z,61.20
2018-10-17T15:56:28.060Z,61.10
2018-10-17T16:00:31.999Z,62.00
2018-10-17T16:04:35.656Z,62.00
2018-10-17T16:08:39.160Z,62.30
2018-10-17T16:12:42.965Z,62.10
2018-10-17T16:16:46.427Z,62.20
2018-10-17T16:20:49.915Z,62.70
2018-10-17T16:24:53.385Z,62.90
2018-10-17T16:28:56.834Z,63.60
2018-10-17T16:33:00.234Z,63.60
2018-10-17T16:37:03.624Z,63.60
2018-10-17T16:41:07.027Z,64.10
2018-10-17T16:45:11.343Z,64.10
2018-10-17T16:49:14.764Z,64.30
2018-10-17T16:53:18.154Z,65.00
2018-10-17T16:57:21.588Z,65.00
2018-10-17T17:01:24.968Z,64.60
2018-10-17T17:05:28.448Z,65.10
2018-10-17T17:09:31.833Z,64.80
2018-10-17T17:13:35.282Z,65.90
2018-10-17T17:17:38.744Z,66.10
2018-10-17T17:21:42.144Z,67.60
2018-10-17T17:25:45.528Z,65.70
2018-10-17T17:29:49.252Z,66.60
2018-10-17T17:33:53.905Z,66.40
2018-10-17T17:37:58.180Z,65.70
2018-10-17T17:42:01.929Z,65.90
2018-10-17T17:46:07.145Z,66.20
2018-10-17T17:50:11.386Z,66.00
2018-10-17T17:54:15.100Z,67.90
2018-10-17T17:58:18.623Z,66.40
2018-10-17T18:02:22.031Z,66.50
2018-10-17T18:06:25.465Z,66.40
2018-10-17T18:10:29.091Z,66.90
2018-10-17T18:14:32.471Z,67.00
2018-10-17T18:18:35.864Z,66.90
2018-10-17T18:22:39.329Z,66.70
2018-10-17T18:26:42.844Z,66.80
2018-10-17T18:30:46.280Z,67.20
2018-10-17T18:34:49.666Z,67.60
2018-10-17T18:38:53.412Z,67.40
2018-10-17T18:42:56.849Z,67.40
2018-10-17T18:47:00.355Z,67.40
2018-10-17T18:51:03.786Z,67.60
2018-10-17T18:55:07.636Z,67.80
2018-10-17T18:59:11.031Z,67.00
2018-10-17T19:03:14.686Z,68.10
2018-10-17T19:07:18.339Z,68.60
2018-10-17T19:11:21.718Z,69.20
2018-10-17T19:15:25.113Z,69.60
2018-10-17T19:19:28.750Z,70.20
2018-10-17T19:23:32.265Z,71.20
2018-10-17T19:27:35.689Z,69.50
2018-10-17T19:31:39.069Z,69.80
2018-10-17T19:35:42.474Z,69.70
2018-10-17T19:39:46.158Z,70.00
2018-10-17T19:43:50.348Z,69.40
2018-10-17T19:47:54.246Z,73.90
2018-10-17T19:51:57.644Z,72.80
2018-10-17T19:56:04.212Z,71.00
2018-10-17T20:00:10.174Z,72.30
2018-10-17T20:04:14.224Z,71.30
2018-10-17T20:08:17.952Z,71.60
2018-10-17T20:12:21.388Z,70.50
2018-10-17T20:16:25.027Z,70.60
2018-10-17T20:20:29.314Z,70.70
2018-10-17T20:24:33.186Z,70.10
2018-10-17T20:28:36.988Z,70.00
2018-10-17T20:32:40.623Z,69.90
2018-10-17T20:36:45.724Z,70.10
2018-10-17T20:40:50.494Z,71.70
2018-10-17T20:44:54.217Z,70.80
2018-10-17T20:48:57.848Z,72.20
2018-10-17T20:53:01.502Z,71.40
2018-10-17T20:57:05.319Z,71.70
2018-10-17T21:01:08.963Z,70.70
2018-10-17T21:05:12.820Z,71.10
2018-10-17T21:09:20.153Z,71.00
2018-10-17T21:13:23.533Z,70.50
2018-10-17T21:17:27.013Z,72.10
2018-10-17T21:21:30.383Z,71.00
2018-10-17T21:25:33.875Z,71.30
2018-10-17T21:29:37.279Z,71.30
2018-10-17T21:33:40.672Z,71.80
2018-10-17T21:37:44.421Z,72.00
2018-10-17T21:41:47.929Z,72.20
2018-10-17T21:45:51.351Z,72.30
2018-10-17T21:49:54.886Z,71.70
2018-10-17T21:53:58.529Z,72.50
2018-10-17T21:58:01.912Z,72.80
2018-10-17T22:02:05.455Z,72.90
2018-10-17T22:06:08.876Z,72.50
2018-10-17T22:10:12.752Z,72.10
2018-10-17T22:14:16.392Z,71.60
2018-10-17T22:18:19.847Z,73.40
2018-10-17T22:22:23.409Z,73.70
2018-10-17T22:26:26.827Z,73.00
2018-10-17T22:30:30.201Z,72.50
2018-10-17T22:34:33.648Z,73.40
2018-10-17T22:38:37.049Z,73.20
2018-10-17T22:42:40.643Z,72.60
2018-10-17T22:46:44.050Z,74.10
2018-10-17T22:50:47.441Z,73.30
2018-10-17T22:54:50.896Z,73.40
2018-10-17T22:58:54.328Z,73.60
2018-10-17T23:02:57.709Z,73.70
2018-10-17T23:07:01.494Z,73.40
2018-10-17T23:11:05.596Z,73.70
2018-10-17T23:15:11.740Z,73.90
2018-10-17T23:19:15.413Z,73.50
2018-10-17T23:23:19.981Z,73.40
2018-10-17T23:27:23.390Z,73.70
2018-10-17T23:31:26.758Z,73.10
2018-10-17T23:35:30.132Z,73.20
2018-10-17T23:39:33.554Z,74.10
2018-10-17T23:43:36.928Z,74.10
2018-10-17T23:47:40.303Z,73.90
2018-10-17T23:51:43.701Z,72.90
2018-10-17T23:55:47.149Z,74.50
2018-10-17T23:59:50.607Z,73.30
